sensor_id;sensor_type;location;lat;lon;timestamp;pressure;altitude;pressure_sealevel;temperature;humidity
21574;BME280;10948;48.706;9.258;2024-01-11T00:01:11;98711.25;;;-4.00;100.00
21574;BME280;10948;48.706;9.258;2024-01-11T00:03:36;98716.13;;;-4.17;100.00
21574;BME280;10948;48.706;9.258;2024-01-11T00:06:01;98720.31;;;-4.19;100.00
21574;BME280;10948;48.706;9.258;2024-01-11T00:08:26;98711.97;;;-4.12;100.00
21574;BME280;10948;48.706;9.258;2024-01-11T00:10:52;98710.13;;;-4.25;100.00
21574;BME280;10948;48.706;9.258;2024-01-11T00:13:17;98715.19;;;-4.25;100.00
21574;BME280;10948;48.706;9.258;2024-01-11T00:15:42;98711.81;;;-4.24;100.00
21574;BME280;10948;48.706;9.258;2024-01-11T00:18:08;98712.72;;;-4.20;100.00
21574;BME280;10948;48.706;9.258;2024-01-11T00:20:33;98722.88;;;-4.20;100.00
21574;BME280;10948;48.706;9.258;2024-01-11T00:22:58;98716.91;;;-4.24;100.00
21574;BME280;10948;48.706;9.258;2024-01-11T00:25:23;98726.22;;;-4.23;100.00
21574;BME280;10948;48.706;9.258;2024-01-11T00:27:49;98726.13;;;-4.29;100.00
21574;BME280;10948;48.706;9.258;2024-01-11T00:30:14;98721.81;;;-4.36;100.00
21574;BME280;10948;48.706;9.258;2024-01-11T00:32:39;98729.47;;;-4.34;100.00
21574;BME280;10948;48.706;9.258;2024-01-11T00:35:05;98728.47;;;-4.44;100.00
21574;BME280;10948;48.706;9.258;2024-01-11T00:37:30;98733.56;;;-4.44;100.00
21574;BME280;10948;48.706;9.258;2024-01-11T00:39:56;98730.28;;;-4.34;100.00
21574;BME280;10948;48.706;9.258;2024-01-11T00:42:21;98732.84;;;-4.32;100.00
21574;BME280;10948;48.706;9.258;2024-01-11T00:44:46;98726.03;;;-4.38;100.00
21574;BME280;10948;48.706;9.258;2024-01-11T00:47:11;98740.16;;;-4.55;100.00
21574;BME280;10948;48.706;9.258;2024-01-11T00:49:37;98735.25;;;-4.43;100.00
21574;BME280;10948;48.706;9.258;2024-01-11T00:52:02;98719.22;;;-4.40;100.00
21574;BME280;10948;48.706;9.258;2024-01-11T00:54:27;98734.22;;;-4.55;100.00
21574;BME280;10948;48.706;9.258;2024-01-11T00:56:53;98729.41;;;-4.37;100.00
21574;BME280;10948;48.706;9.258;2024-01-11T00:59:18;98726.78;;;-4.45;100.00
21574;BME280;10948;48.706;9.258;2024-01-11T01:01:47;98721.69;;;-4.43;100.00
21574;BME280;10948;48.706;9.258;2024-01-11T01:04:13;98725.09;;;-4.43;100.00
21574;BME280;10948;48.706;9.258;2024-01-11T01:06:38;98726.59;;;-4.57;100.00
21574;BME280;10948;48.706;9.258;2024-01-11T01:09:04;98724.94;;;-4.53;100.00
21574;BME280;10948;48.706;9.258;2024-01-11T01:11:29;98724.97;;;-4.52;100.00
21574;BME280;10948;48.706;9.258;2024-01-11T01:13:55;98732.66;;;-4.46;100.00
21574;BME280;10948;48.706;9.258;2024-01-11T01:16:21;98740.13;;;-4.58;100.00
21574;BME280;10948;48.706;9.258;2024-01-11T01:18:47;98743.56;;;-4.53;100.00
21574;BME280;10948;48.706;9.258;2024-01-11T01:21:12;98741.75;;;-4.63;100.00
21574;BME280;10948;48.706;9.258;2024-01-11T01:23:37;98741.84;;;-4.54;100.00
21574;BME280;10948;48.706;9.258;2024-01-11T01:26:02;98731.59;;;-4.63;100.00
21574;BME280;10948;48.706;9.258;2024-01-11T01:28:28;98731.50;;;-4.69;100.00
21574;BME280;10948;48.706;9.258;2024-01-11T01:30:53;98725.03;;;-4.47;100.00
21574;BME280;10948;48.706;9.258;2024-01-11T01:33:18;98723.84;;;-4.72;100.00
21574;BME280;10948;48.706;9.258;2024-01-11T01:35:43;98736.69;;;-4.60;100.00
21574;BME280;10948;48.706;9.258;2024-01-11T01:38:09;98739.06;;;-4.72;100.00
21574;BME280;10948;48.706;9.258;2024-01-11T01:40:34;98742.31;;;-4.80;100.00
21574;BME280;10948;48.706;9.258;2024-01-11T01:42:59;98738.22;;;-4.72;100.00
21574;BME280;10948;48.706;9.258;2024-01-11T01:45:27;98739.88;;;-4.73;100.00
21574;BME280;10948;48.706;9.258;2024-01-11T01:47:53;98745.09;;;-4.64;100.00
21574;BME280;10948;48.706;9.258;2024-01-11T01:50:18;98755.28;;;-4.61;100.00
21574;BME280;10948;48.706;9.258;2024-01-11T01:52:45;98758.56;;;-4.68;100.00
21574;BME280;10948;48.706;9.258;2024-01-11T01:55:10;98762.81;;;-4.68;100.00
21574;BME280;10948;48.706;9.258;2024-01-11T01:57:37;98760.13;;;-4.77;100.00
21574;BME280;10948;48.706;9.258;2024-01-11T02:00:04;98758.38;;;-4.80;100.00
21574;BME280;10948;48.706;9.258;2024-01-11T02:02:30;98765.34;;;-4.67;100.00
21574;BME280;10948;48.706;9.258;2024-01-11T02:04:56;98767.78;;;-4.73;100.00
21574;BME280;10948;48.706;9.258;2024-01-11T02:07:22;98769.44;;;-4.76;100.00
21574;BME280;10948;48.706;9.258;2024-01-11T02:09:48;98772.88;;;-4.73;100.00
21574;BME280;10948;48.706;9.258;2024-01-11T02:12:14;98780.69;;;-4.61;100.00
21574;BME280;10948;48.706;9.258;2024-01-11T02:14:40;98770.97;;;-4.87;100.00
21574;BME280;10948;48.706;9.258;2024-01-11T02:17:05;98770.19;;;-4.82;100.00
21574;BME280;10948;48.706;9.258;2024-01-11T02:19:31;98756.69;;;-4.81;100.00
21574;BME280;10948;48.706;9.258;2024-01-11T02:21:56;98763.19;;;-4.98;100.00
21574;BME280;10948;48.706;9.258;2024-01-11T02:24:25;98778.34;;;-5.01;100.00
21574;BME280;10948;48.706;9.258;2024-01-11T02:27:11;98766.53;;;-4.99;100.00
21574;BME280;10948;48.706;9.258;2024-01-11T02:29:36;98761.63;;;-4.90;100.00
21574;BME280;10948;48.706;9.258;2024-01-11T02:32:01;98767.41;;;-4.95;100.00
21574;BME280;10948;48.706;9.258;2024-01-11T02:34:27;98769.88;;;-5.00;100.00
21574;BME280;10948;48.706;9.258;2024-01-11T02:36:53;98767.50;;;-4.92;100.00
21574;BME280;10948;48.706;9.258;2024-01-11T02:39:19;98771.81;;;-4.87;100.00
21574;BME280;10948;48.706;9.258;2024-01-11T02:41:45;98771.91;;;-4.81;100.00
21574;BME280;10948;48.706;9.258;2024-01-11T02:44:10;98780.25;;;-4.88;100.00
21574;BME280;10948;48.706;9.258;2024-01-11T02:46:36;98773.28;;;-4.99;100.00
21574;BME280;10948;48.706;9.258;2024-01-11T02:49:01;98776.66;;;-4.99;100.00
21574;BME280;10948;48.706;9.258;2024-01-11T02:51:26;98776.38;;;-5.17;100.00
21574;BME280;10948;48.706;9.258;2024-01-11T02:53:51;98769.75;;;-5.09;100.00
21574;BME280;10948;48.706;9.258;2024-01-11T02:56:16;98775.66;;;-5.10;100.00
21574;BME280;10948;48.706;9.258;2024-01-11T02:58:42;98773.22;;;-5.04;100.00
21574;BME280;10948;48.706;9.258;2024-01-11T03:01:07;98773.13;;;-5.10;100.00
21574;BME280;10948;48.706;9.258;2024-01-11T03:03:32;98766.28;;;-5.14;100.00
21574;BME280;10948;48.706;9.258;2024-01-11T03:05:57;98767.19;;;-5.12;100.00
21574;BME280;10948;48.706;9.258;2024-01-11T03:08:22;98762.03;;;-5.15;100.00
21574;BME280;10948;48.706;9.258;2024-01-11T03:10:48;98751.69;;;-5.27;100.00
21574;BME280;10948;48.706;9.258;2024-01-11T03:13:13;98762.06;;;-5.13;100.00
21574;BME280;10948;48.706;9.258;2024-01-11T03:15:38;98761.41;;;-5.02;100.00
21574;BME280;10948;48.706;9.258;2024-01-11T03:18:04;98762.28;;;-5.01;100.00
21574;BME280;10948;48.706;9.258;2024-01-11T03:20:29;98756.19;;;-5.11;100.00
21574;BME280;10948;48.706;9.258;2024-01-11T03:22:54;98752.00;;;-5.09;100.00
21574;BME280;10948;48.706;9.258;2024-01-11T03:25:19;98754.31;;;-5.21;100.00
21574;BME280;10948;48.706;9.258;2024-01-11T03:27:45;98754.31;;;-5.21;100.00
21574;BME280;10948;48.706;9.258;2024-01-11T03:30:11;98745.16;;;-5.13;100.00
21574;BME280;10948;48.706;9.258;2024-01-11T03:32:36;98749.41;;;-5.12;100.00
21574;BME280;10948;48.706;9.258;2024-01-11T03:35:01;98741.56;;;-5.25;100.00
21574;BME280;10948;48.706;9.258;2024-01-11T03:37:27;98743.34;;;-5.20;100.00
21574;BME280;10948;48.706;9.258;2024-01-11T03:39:52;98747.50;;;-5.24;100.00
21574;BME280;10948;48.706;9.258;2024-01-11T03:42:17;98749.94;;;-5.30;100.00
21574;BME280;10948;48.706;9.258;2024-01-11T03:44:42;98749.13;;;-5.27;100.00
21574;BME280;10948;48.706;9.258;2024-01-11T03:47:07;98747.53;;;-5.22;100.00
21574;BME280;10948;48.706;9.258;2024-01-11T03:49:33;98742.31;;;-5.30;100.00
21574;BME280;10948;48.706;9.258;2024-01-11T03:51:58;98738.97;;;-5.29;100.00
21574;BME280;10948;48.706;9.258;2024-01-11T03:54:23;98730.25;;;-5.43;100.00
21574;BME280;10948;48.706;9.258;2024-01-11T03:56:48;98744.03;;;-5.29;100.00
21574;BME280;10948;48.706;9.258;2024-01-11T03:59:14;98736.41;;;-5.29;100.00
21574;BME280;10948;48.706;9.258;2024-01-11T04:01:42;98735.44;;;-5.37;100.00
21574;BME280;10948;48.706;9.258;2024-01-11T04:04:07;98732.13;;;-5.33;100.00
21574;BME280;10948;48.706;9.258;2024-01-11T04:06:33;98731.91;;;-5.45;100.00
21574;BME280;10948;48.706;9.258;2024-01-11T04:08:58;98730.31;;;-5.40;100.00
21574;BME280;10948;48.706;9.258;2024-01-11T04:11:26;98739.66;;;-5.38;100.00
21574;BME280;10948;48.706;9.258;2024-01-11T04:13:52;98727.72;;;-5.42;100.00
21574;BME280;10948;48.706;9.258;2024-01-11T04:16:17;98732.19;;;-5.30;100.00
21574;BME280;10948;48.706;9.258;2024-01-11T04:18:42;98744.03;;;-5.29;100.00
21574;BME280;10948;48.706;9.258;2024-01-11T04:21:08;98738.66;;;-5.46;100.00
21574;BME280;10948;48.706;9.258;2024-01-11T04:23:44;98740.41;;;-5.43;100.00
21574;BME280;10948;48.706;9.258;2024-01-11T04:26:09;98736.22;;;-5.41;100.00
21574;BME280;10948;48.706;9.258;2024-01-11T04:28:36;98741.13;;;-5.49;100.00
21574;BME280;10948;48.706;9.258;2024-01-11T04:31:01;98740.25;;;-5.51;100.00
21574;BME280;10948;48.706;9.258;2024-01-11T04:33:27;98734.44;;;-5.47;100.00
21574;BME280;10948;48.706;9.258;2024-01-11T04:35:52;98736.09;;;-5.47;100.00
21574;BME280;10948;48.706;9.258;2024-01-11T04:38:17;98733.34;;;-5.59;100.00
21574;BME280;10948;48.706;9.258;2024-01-11T04:40:42;98738.41;;;-5.59;100.00
21574;BME280;10948;48.706;9.258;2024-01-11T04:43:07;98740.06;;;-5.61;100.00
21574;BME280;10948;48.706;9.258;2024-01-11T04:45:34;98743.63;;;-5.52;100.00
21574;BME280;10948;48.706;9.258;2024-01-11T04:47:59;98731.78;;;-5.51;100.00
21574;BME280;10948;48.706;9.258;2024-01-11T04:50:24;98736.84;;;-5.51;100.00
21574;BME280;10948;48.706;9.258;2024-01-11T04:52:49;98736.66;;;-5.62;100.00
21574;BME280;10948;48.706;9.258;2024-01-11T04:55:15;98731.81;;;-5.50;100.00
21574;BME280;10948;48.706;9.258;2024-01-11T04:57:40;98743.59;;;-5.53;100.00
21574;BME280;10948;48.706;9.258;2024-01-11T05:00:05;98733.53;;;-5.50;100.00
21574;BME280;10948;48.706;9.258;2024-01-11T05:02:30;98742.72;;;-5.55;100.00
21574;BME280;10948;48.706;9.258;2024-01-11T05:04:56;98731.69;;;-5.57;100.00
21574;BME280;10948;48.706;9.258;2024-01-11T05:07:21;98734.84;;;-5.70;100.00
21574;BME280;10948;48.706;9.258;2024-01-11T05:09:46;98735.81;;;-5.62;100.00
21574;BME280;10948;48.706;9.258;2024-01-11T05:12:21;98745.09;;;-5.64;100.00
21574;BME280;10948;48.706;9.258;2024-01-11T05:14:46;98744.97;;;-5.69;100.00
21574;BME280;10948;48.706;9.258;2024-01-11T05:17:11;98742.59;;;-5.61;100.00
21574;BME280;10948;48.706;9.258;2024-01-11T05:19:36;98749.00;;;-5.78;100.00
21574;BME280;10948;48.706;9.258;2024-01-11T05:22:02;98743.19;;;-5.74;100.00
21574;BME280;10948;48.706;9.258;2024-01-11T05:24:27;98745.69;;;-5.76;100.00
21574;BME280;10948;48.706;9.258;2024-01-11T05:26:53;98753.44;;;-5.68;100.00
21574;BME280;10948;48.706;9.258;2024-01-11T05:29:18;98748.38;;;-5.68;100.00
21574;BME280;10948;48.706;9.258;2024-01-11T05:31:43;98755.09;;;-5.69;100.00
21574;BME280;10948;48.706;9.258;2024-01-11T05:34:08;98755.84;;;-5.74;100.00
21574;BME280;10948;48.706;9.258;2024-01-11T05:36:37;98761.75;;;-5.75;100.00
21574;BME280;10948;48.706;9.258;2024-01-11T05:39:02;98754.78;;;-5.88;100.00
21574;BME280;10948;48.706;9.258;2024-01-11T05:41:28;98766.88;;;-5.74;100.00
21574;BME280;10948;48.706;9.258;2024-01-11T05:43:53;98766.03;;;-5.73;100.00
21574;BME280;10948;48.706;9.258;2024-01-11T05:46:19;98773.47;;;-5.83;100.00
21574;BME280;10948;48.706;9.258;2024-01-11T05:48:44;98781.03;;;-5.85;100.00
21574;BME280;10948;48.706;9.258;2024-01-11T05:51:09;98787.88;;;-5.81;100.00
21574;BME280;10948;48.706;9.258;2024-01-11T05:53:35;98785.34;;;-5.79;100.00
21574;BME280;10948;48.706;9.258;2024-01-11T05:56:01;98779.56;;;-5.71;100.00
21574;BME280;10948;48.706;9.258;2024-01-11T05:58:26;98786.88;;;-5.87;100.00
21574;BME280;10948;48.706;9.258;2024-01-11T06:00:51;98789.41;;;-5.87;100.00
21574;BME280;10948;48.706;9.258;2024-01-11T06:03:16;98790.28;;;-5.85;100.00
21574;BME280;10948;48.706;9.258;2024-01-11T06:05:42;98788.59;;;-5.86;100.00
21574;BME280;10948;48.706;9.258;2024-01-11T06:08:07;98795.38;;;-5.84;100.00
21574;BME280;10948;48.706;9.258;2024-01-11T06:10:33;98793.66;;;-5.86;100.00
21574;BME280;10948;48.706;9.258;2024-01-11T06:12:58;98799.56;;;-5.86;100.00
21574;BME280;10948;48.706;9.258;2024-01-11T06:15:23;98797.13;;;-5.81;100.00
21574;BME280;10948;48.706;9.258;2024-01-11T06:17:48;98802.19;;;-5.81;100.00
21574;BME280;10948;48.706;9.258;2024-01-11T06:20:14;98807.13;;;-5.87;100.00
21574;BME280;10948;48.706;9.258;2024-01-11T06:22:39;98807.00;;;-5.93;100.00
21574;BME280;10948;48.706;9.258;2024-01-11T06:25:05;98805.31;;;-5.94;100.00
21574;BME280;10948;48.706;9.258;2024-01-11T06:27:30;98798.41;;;-6.01;100.00
21574;BME280;10948;48.706;9.258;2024-01-11T06:29:55;98800.53;;;-5.81;100.00
21574;BME280;10948;48.706;9.258;2024-01-11T06:32:21;98789.44;;;-5.86;100.00
21574;BME280;10948;48.706;9.258;2024-01-11T06:34:46;98797.84;;;-5.88;100.00
21574;BME280;10948;48.706;9.258;2024-01-11T06:37:12;98796.88;;;-5.93;100.00
21574;BME280;10948;48.706;9.258;2024-01-11T06:39:37;98809.66;;;-5.87;100.00
21574;BME280;10948;48.706;9.258;2024-01-11T06:42:03;98806.38;;;-5.83;100.00
21574;BME280;10948;48.706;9.258;2024-01-11T06:44:28;98803.72;;;-5.89;100.00
21574;BME280;10948;48.706;9.258;2024-01-11T06:46:54;98805.13;;;-6.03;100.00
21574;BME280;10948;48.706;9.258;2024-01-11T06:49:19;98808.59;;;-5.98;100.00
21574;BME280;10948;48.706;9.258;2024-01-11T06:51:44;98810.19;;;-6.03;100.00
21574;BME280;10948;48.706;9.258;2024-01-11T06:54:09;98811.34;;;-5.88;100.00
21574;BME280;10948;48.706;9.258;2024-01-11T06:56:35;98804.69;;;-5.84;100.00
21574;BME280;10948;48.706;9.258;2024-01-11T06:59:01;98807.66;;;-6.02;100.00
21574;BME280;10948;48.706;9.258;2024-01-11T07:01:26;98807.00;;;-5.93;100.00
21574;BME280;10948;48.706;9.258;2024-01-11T07:03:51;98814.09;;;-5.77;100.00
21574;BME280;10948;48.706;9.258;2024-01-11T07:06:17;98825.69;;;-5.88;100.00
21574;BME280;10948;48.706;9.258;2024-01-11T07:08:42;98823.78;;;-5.98;100.00
21574;BME280;10948;48.706;9.258;2024-01-11T07:11:07;98830.53;;;-5.99;100.00
21574;BME280;10948;48.706;9.258;2024-01-11T07:13:33;98832.47;;;-5.87;100.00
21574;BME280;10948;48.706;9.258;2024-01-11T07:15:58;98838.13;;;-5.99;100.00
21574;BME280;10948;48.706;9.258;2024-01-11T07:18:24;98841.69;;;-5.91;100.00
21574;BME280;10948;48.706;9.258;2024-01-11T07:20:50;98843.19;;;-5.99;100.00
21574;BME280;10948;48.706;9.258;2024-01-11T07:23:15;98839.09;;;-5.92;100.00
21574;BME280;10948;48.706;9.258;2024-01-11T07:25:40;98844.19;;;-5.92;100.00
21574;BME280;10948;48.706;9.258;2024-01-11T07:28:06;98851.06;;;-5.85;100.00
21574;BME280;10948;48.706;9.258;2024-01-11T07:30:31;98839.38;;;-5.80;100.00
21574;BME280;10948;48.706;9.258;2024-01-11T07:32:56;98841.06;;;-5.79;100.00
21574;BME280;10948;48.706;9.258;2024-01-11T07:35:22;98841.06;;;-5.79;100.00
21574;BME280;10948;48.706;9.258;2024-01-11T07:37:47;98833.16;;;-5.94;100.00
21574;BME280;10948;48.706;9.258;2024-01-11T07:40:12;98829.25;;;-5.80;100.00
21574;BME280;10948;48.706;9.258;2024-01-11T07:42:38;98837.19;;;-5.62;100.00
21574;BME280;10948;48.706;9.258;2024-01-11T07:45:04;98847.75;;;-5.41;100.00
21574;BME280;10948;48.706;9.258;2024-01-11T07:47:30;98860.97;;;-5.13;100.00
21574;BME280;10948;48.706;9.258;2024-01-11T07:49:55;98869.41;;;-5.13;100.00
21574;BME280;10948;48.706;9.258;2024-01-11T07:52:20;98877.16;;;-5.08;100.00
21574;BME280;10948;48.706;9.258;2024-01-11T07:54:46;98867.91;;;-5.05;100.00
21574;BME280;10948;48.706;9.258;2024-01-11T07:57:11;98869.66;;;-5.01;100.00
21574;BME280;10948;48.706;9.258;2024-01-11T07:59:36;98867.53;;;-4.78;100.00
21574;BME280;10948;48.706;9.258;2024-01-11T08:02:02;98872.00;;;-4.65;100.00
21574;BME280;10948;48.706;9.258;2024-01-11T08:04:27;98886.59;;;-4.52;100.00
21574;BME280;10948;48.706;9.258;2024-01-11T08:06:52;98883.28;;;-4.48;100.00
21574;BME280;10948;48.706;9.258;2024-01-11T08:09:18;98897.38;;;-4.15;100.00
21574;BME280;10948;48.706;9.258;2024-01-11T08:11:43;98895.03;;;-4.00;100.00
21574;BME280;10948;48.706;9.258;2024-01-11T08:14:08;98900.31;;;-3.88;100.00
21574;BME280;10948;48.706;9.258;2024-01-11T08:16:34;98908.97;;;-3.74;100.00
21574;BME280;10948;48.706;9.258;2024-01-11T08:18:59;98914.34;;;-3.53;99.49
21574;BME280;10948;48.706;9.258;2024-01-11T08:21:25;98909.56;;;-3.32;99.38
21574;BME280;10948;48.706;9.258;2024-01-11T08:23:51;98903.25;;;-2.91;98.50
21574;BME280;10948;48.706;9.258;2024-01-11T08:26:16;98905.19;;;-2.69;97.83
21574;BME280;10948;48.706;9.258;2024-01-11T08:28:44;98912.25;;;-2.41;97.59
21574;BME280;10948;48.706;9.258;2024-01-11T08:31:09;98907.41;;;-2.11;96.90
21574;BME280;10948;48.706;9.258;2024-01-11T08:33:34;98915.91;;;-2.09;95.82
21574;BME280;10948;48.706;9.258;2024-01-11T08:36:01;98919.50;;;-1.86;94.23
21574;BME280;10948;48.706;9.258;2024-01-11T08:38:28;98918.03;;;-1.51;93.93
21574;BME280;10948;48.706;9.258;2024-01-11T08:40:54;98921.50;;;-1.38;92.65
21574;BME280;10948;48.706;9.258;2024-01-11T08:43:20;98916.44;;;-1.26;92.41
21574;BME280;10948;48.706;9.258;2024-01-11T08:45:45;98919.03;;;-1.20;92.67
21574;BME280;10948;48.706;9.258;2024-01-11T08:48:13;98919.97;;;-0.96;91.16
21574;BME280;10948;48.706;9.258;2024-01-11T08:50:38;98920.13;;;-0.42;90.69
21574;BME280;10948;48.706;9.258;2024-01-11T08:53:04;98915.03;;;-0.30;89.73
21574;BME280;10948;48.706;9.258;2024-01-11T08:55:29;98919.28;;;-0.08;88.38
21574;BME280;10948;48.706;9.258;2024-01-11T08:57:54;98924.41;;;-0.14;87.60
21574;BME280;10948;48.706;9.258;2024-01-11T09:00:20;98919.25;;;0.43;86.26
21574;BME280;10948;48.706;9.258;2024-01-11T09:02:45;98909.59;;;1.23;84.06
21574;BME280;10948;48.706;9.258;2024-01-11T09:05:15;98902.81;;;1.16;81.17
21574;BME280;10948;48.706;9.258;2024-01-11T09:07:41;98904.31;;;1.53;79.70
21574;BME280;10948;48.706;9.258;2024-01-11T09:10:07;98912.63;;;1.85;78.58
21574;BME280;10948;48.706;9.258;2024-01-11T09:12:39;98895.56;;;2.71;76.80
21574;BME280;10948;48.706;9.258;2024-01-11T09:15:04;98902.97;;;2.97;74.55
21574;BME280;10948;48.706;9.258;2024-01-11T09:17:29;98903.84;;;3.58;71.71
21574;BME280;10948;48.706;9.258;2024-01-11T09:19:55;98909.56;;;3.78;69.92
21574;BME280;10948;48.706;9.258;2024-01-11T09:22:20;98915.88;;;2.91;69.49
21574;BME280;10948;48.706;9.258;2024-01-11T09:24:45;98917.66;;;3.52;70.01
21574;BME280;10948;48.706;9.258;2024-01-11T09:27:11;98906.88;;;3.26;70.54
21574;BME280;10948;48.706;9.258;2024-01-11T09:29:36;98906.34;;;3.02;69.47
21574;BME280;10948;48.706;9.258;2024-01-11T09:32:01;98893.81;;;2.73;70.34
21574;BME280;10948;48.706;9.258;2024-01-11T09:34:27;98902.53;;;3.30;69.45
21574;BME280;10948;48.706;9.258;2024-01-11T09:36:52;98919.28;;;3.61;68.71
21574;BME280;10948;48.706;9.258;2024-01-11T09:39:17;98916.94;;;3.41;68.49
21574;BME280;10948;48.706;9.258;2024-01-11T09:41:45;98918.03;;;3.27;67.90
21574;BME280;10948;48.706;9.258;2024-01-11T09:44:16;98909.50;;;3.22;68.00
21574;BME280;10948;48.706;9.258;2024-01-11T09:46:43;98913.31;;;4.12;67.46
21574;BME280;10948;48.706;9.258;2024-01-11T09:49:08;98916.47;;;4.30;67.42
21574;BME280;10948;48.706;9.258;2024-01-11T09:51:35;98923.22;;;5.26;66.05
21574;BME280;10948;48.706;9.258;2024-01-11T09:54:02;98919.16;;;4.71;64.53
21574;BME280;10948;48.706;9.258;2024-01-11T09:56:28;98912.63;;;4.54;64.58
21574;BME280;10948;48.706;9.258;2024-01-11T09:58:53;98918.09;;;4.81;64.17
21574;BME280;10948;48.706;9.258;2024-01-11T10:01:19;98911.44;;;5.54;63.15
21574;BME280;10948;48.706;9.258;2024-01-11T10:03:44;98919.63;;;5.33;61.53
21574;BME280;10948;48.706;9.258;2024-01-11T10:06:11;98918.63;;;5.78;61.89
21574;BME280;10948;48.706;9.258;2024-01-11T10:08:37;98913.25;;;6.57;60.03
21574;BME280;10948;48.706;9.258;2024-01-11T10:11:02;98901.72;;;6.37;59.89
21574;BME280;10948;48.706;9.258;2024-01-11T10:13:28;98895.28;;;7.15;58.81
21574;BME280;10948;48.706;9.258;2024-01-11T10:16:15;98908.38;;;7.09;57.91
21574;BME280;10948;48.706;9.258;2024-01-11T10:18:40;98906.84;;;7.89;57.71
21574;BME280;10948;48.706;9.258;2024-01-11T10:21:06;98894.66;;;7.07;56.47
21574;BME280;10948;48.706;9.258;2024-01-11T10:23:34;98884.44;;;8.14;56.00
21574;BME280;10948;48.706;9.258;2024-01-11T10:25:59;98880.19;;;8.64;54.76
21574;BME280;10948;48.706;9.258;2024-01-11T10:28:25;98882.41;;;9.45;53.47
21574;BME280;10948;48.706;9.258;2024-01-11T10:30:51;98875.63;;;9.18;52.40
21574;BME280;10948;48.706;9.258;2024-01-11T10:33:19;98875.56;;;9.65;51.20
21574;BME280;10948;48.706;9.258;2024-01-11T10:35:46;98869.22;;;9.49;51.65
21574;BME280;10948;48.706;9.258;2024-01-11T10:38:11;98865.06;;;10.11;50.66
21574;BME280;10948;48.706;9.258;2024-01-11T10:40:39;98866.53;;;9.29;50.03
21574;BME280;10948;48.706;9.258;2024-01-11T10:43:05;98870.13;;;8.55;51.03
21574;BME280;10948;48.706;9.258;2024-01-11T10:45:36;98869.84;;;9.56;50.50
21574;BME280;10948;48.706;9.258;2024-01-11T10:48:10;98863.69;;;9.58;49.63
21574;BME280;10948;48.706;9.258;2024-01-11T10:50:37;98858.88;;;9.92;49.32
21574;BME280;10948;48.706;9.258;2024-01-11T10:53:25;98859.66;;;9.28;49.24
21574;BME280;10948;48.706;9.258;2024-01-11T10:55:54;98877.34;;;9.85;50.55
21574;BME280;10948;48.706;9.258;2024-01-11T10:58:21;98878.06;;;9.22;51.00
21574;BME280;10948;48.706;9.258;2024-01-11T11:00:48;98880.94;;;8.67;52.26
21574;BME280;10948;48.706;9.258;2024-01-11T11:03:14;98880.03;;;7.90;52.54
21574;BME280;10948;48.706;9.258;2024-01-11T11:05:41;98874.47;;;7.47;53.47
21574;BME280;10948;48.706;9.258;2024-01-11T11:08:07;98882.78;;;7.00;55.27
21574;BME280;10948;48.706;9.258;2024-01-11T11:10:34;98877.59;;;7.58;55.16
21574;BME280;10948;48.706;9.258;2024-01-11T11:13:00;98869.41;;;7.44;54.63
21574;BME280;10948;48.706;9.258;2024-01-11T11:15:28;98870.28;;;7.14;54.69
21574;BME280;10948;48.706;9.258;2024-01-11T11:17:54;98879.56;;;7.78;55.08
21574;BME280;10948;48.706;9.258;2024-01-11T11:20:19;98875.38;;;7.74;54.71
21574;BME280;10948;48.706;9.258;2024-01-11T11:22:48;98882.38;;;7.70;55.00
21574;BME280;10948;48.706;9.258;2024-01-11T11:25:26;98877.44;;;8.68;54.48
21574;BME280;10948;48.706;9.258;2024-01-11T11:27:52;98868.06;;;7.59;53.79
21574;BME280;10948;48.706;9.258;2024-01-11T11:30:18;98866.34;;;7.30;53.77
21574;BME280;10948;48.706;9.258;2024-01-11T11:32:44;98863.34;;;8.26;54.10
21574;BME280;10948;48.706;9.258;2024-01-11T11:35:10;98859.25;;;8.19;53.56
21574;BME280;10948;48.706;9.258;2024-01-11T11:37:38;98858.50;;;7.88;53.19
21574;BME280;10948;48.706;9.258;2024-01-11T11:40:04;98870.47;;;8.93;52.86
21574;BME280;10948;48.706;9.258;2024-01-11T11:42:34;98872.06;;;8.48;53.09
21574;BME280;10948;48.706;9.258;2024-01-11T11:44:59;98876.00;;;8.60;53.13
21574;BME280;10948;48.706;9.258;2024-01-11T11:47:24;98865.25;;;8.70;53.25
21574;BME280;10948;48.706;9.258;2024-01-11T11:49:57;98862.16;;;9.53;52.48
21574;BME280;10948;48.706;9.258;2024-01-11T11:52:24;98855.28;;;8.83;51.59
21574;BME280;10948;48.706;9.258;2024-01-11T11:54:49;98854.47;;;8.06;52.84
21574;BME280;10948;48.706;9.258;2024-01-11T11:57:16;98849.63;;;7.42;53.32
21574;BME280;10948;48.706;9.258;2024-01-11T11:59:41;98843.97;;;7.84;53.98
21574;BME280;10948;48.706;9.258;2024-01-11T12:02:07;98841.31;;;8.38;53.22
21574;BME280;10948;48.706;9.258;2024-01-11T12:04:41;98842.84;;;7.65;53.44
21574;BME280;10948;48.706;9.258;2024-01-11T12:07:11;98842.16;;;8.87;53.23
21574;BME280;10948;48.706;9.258;2024-01-11T12:09:36;98832.28;;;7.71;53.28
21574;BME280;10948;48.706;9.258;2024-01-11T12:12:02;98836.16;;;8.10;53.32
21574;BME280;10948;48.706;9.258;2024-01-11T12:14:28;98815.16;;;8.68;53.30
21574;BME280;10948;48.706;9.258;2024-01-11T12:16:57;98807.03;;;8.04;53.71
21574;BME280;10948;48.706;9.258;2024-01-11T12:19:23;98798.16;;;7.85;53.11
21574;BME280;10948;48.706;9.258;2024-01-11T12:21:49;98806.75;;;7.04;53.97
21574;BME280;10948;48.706;9.258;2024-01-11T12:24:15;98809.06;;;7.94;53.79
21574;BME280;10948;48.706;9.258;2024-01-11T12:26:40;98801.84;;;8.30;53.18
21574;BME280;10948;48.706;9.258;2024-01-11T12:29:06;98796.97;;;8.45;52.54
21574;BME280;10948;48.706;9.258;2024-01-11T12:31:31;98795.16;;;7.97;52.99
21574;BME280;10948;48.706;9.258;2024-01-11T12:33:57;98802.53;;;8.09;53.38
21574;BME280;10948;48.706;9.258;2024-01-11T12:36:22;98803.81;;;7.97;53.37
21574;BME280;10948;48.706;9.258;2024-01-11T12:38:48;98803.28;;;8.38;53.45
21574;BME280;10948;48.706;9.258;2024-01-11T12:41:13;98808.25;;;8.18;53.76
21574;BME280;10948;48.706;9.258;2024-01-11T12:43:40;98801.75;;;8.57;53.75
21574;BME280;10948;48.706;9.258;2024-01-11T12:46:06;98801.09;;;8.26;53.38
21574;BME280;10948;48.706;9.258;2024-01-11T12:48:32;98802.97;;;7.69;53.82
21574;BME280;10948;48.706;9.258;2024-01-11T12:50:58;98792.72;;;7.92;53.58